Time;durP1;ratioP1;P1;durP2;ratioP2;P2;SDS_P1;SDS_P2;PMS_P1;PMS_P2;Temp;Humidity;BMP_temperature;BMP_pressure;BME280_temperature;BME280_humidity;BME280_pressure;Samples;Min_cycle;Max_cycle;Signal;HPM_P1;HPM_P2
2021/10/27 00:00:35;;;;;;;10.70;5.43;;;15.60;81.50;;;;;;5093943;28;20434;-81
2021/10/27 00:03:01;;;;;;;7.70;5.23;;;15.60;81.30;;;;;;5098218;28;20180;-83
2021/10/27 00:05:27;;;;;;;10.38;4.80;;;15.60;81.40;;;;;;5086242;28;20442;-81
2021/10/27 00:07:53;;;;;;;13.60;5.90;;;15.50;81.50;;;;;;5079950;28;20544;-81
2021/10/27 00:10:19;;;;;;;9.90;5.50;;;15.50;81.80;;;;;;5084892;28;20243;-81
2021/10/27 00:12:46;;;;;;;11.27;4.93;;;15.50;81.90;;;;;;5116389;28;20168;-81
2021/10/27 00:15:14;;;;;;;14.38;4.90;;;15.70;81.70;;;;;;5117157;28;20183;-82
2021/10/27 00:17:39;;;;;;;9.25;4.85;;;15.70;81.20;;;;;;5115574;28;20170;-82
2021/10/27 00:20:07;;;;;;;12.23;5.93;;;15.60;81.30;;;;;;5106893;28;20235;-82
2021/10/27 00:22:33;;;;;;;14.30;5.28;;;15.60;81.50;;;;;;5109065;28;20195;-81
2021/10/27 00:24:59;;;;;;;8.05;5.03;;;15.70;81.40;;;;;;5109829;28;20215;-82
2021/10/27 00:27:25;;;;;;;5.97;4.50;;;15.70;81.10;;;;;;5103402;28;20579;-82
2021/10/27 00:29:50;;;;;;;6.77;4.90;;;15.50;81.30;;;;;;5105252;28;20623;-82
2021/10/27 00:32:17;;;;;;;8.53;4.60;;;15.60;81.10;;;;;;5099338;28;20222;-82
2021/10/27 00:34:43;;;;;;;8.32;5.28;;;15.70;81.00;;;;;;5100412;28;20704;-82
2021/10/27 00:37:09;;;;;;;11.55;5.03;;;15.70;81.10;;;;;;5099664;28;20704;-82
2021/10/27 00:39:35;;;;;;;8.35;5.63;;;15.80;80.90;;;;;;5099511;28;20627;-82
2021/10/27 00:42:03;;;;;;;7.70;5.07;;;15.70;80.50;;;;;;5099909;28;20167;-82
2021/10/27 00:44:30;;;;;;;8.57;6.20;;;15.60;80.70;;;;;;5099027;28;20194;-82
2021/10/27 00:47:05;;;;;;;19.67;5.15;;;15.60;80.90;;;;;;5084765;28;20192;-82
2021/10/27 00:49:34;;;;;;;5.13;4.30;;;15.70;80.70;;;;;;5081266;28;20234;-82
2021/10/27 00:52:02;;;;;;;8.57;4.15;;;15.80;81.00;;;;;;5079326;28;20710;-79
2021/10/27 00:54:28;;;;;;;6.35;4.50;;;15.60;80.40;;;;;;5083494;28;20240;-79
2021/10/27 00:56:56;;;;;;;13.50;4.03;;;15.60;80.60;;;;;;5090618;28;20209;-79
2021/10/27 00:59:23;;;;;;;7.93;4.78;;;15.70;80.60;;;;;;5078852;28;20185;-79
2021/10/27 01:01:50;;;;;;;9.13;4.05;;;15.70;80.30;;;;;;5078793;28;20199;-80
2021/10/27 01:04:16;;;;;;;10.30;3.90;;;15.90;80.20;;;;;;5077433;28;20200;-80
2021/10/27 01:06:43;;;;;;;10.32;4.32;;;15.60;80.10;;;;;;5078679;28;20225;-80
2021/10/27 01:09:09;;;;;;;7.75;4.30;;;15.60;80.50;;;;;;5083473;28;20624;-80
2021/10/27 01:11:35;;;;;;;10.10;4.60;;;15.70;80.70;;;;;;5094739;28;20216;-79
2021/10/27 01:14:04;;;;;;;6.75;4.10;;;15.70;80.00;;;;;;5117220;28;20195;-82
2021/10/27 01:16:29;;;;;;;7.95;4.18;;;15.60;80.10;;;;;;5119700;28;20198;-82
2021/10/27 01:18:55;;;;;;;5.93;3.80;;;15.60;80.00;;;;;;5118692;28;20705;-82
2021/10/27 01:21:25;;;;;;;11.00;4.10;;;15.60;80.80;;;;;;5118835;28;20221;-82
2021/10/27 01:23:51;;;;;;;12.05;4.20;;;15.50;80.50;;;;;;5118012;28;20678;-82
2021/10/27 01:26:17;;;;;;;11.55;3.90;;;15.60;80.30;;;;;;5118807;28;20183;-82
2021/10/27 01:28:44;;;;;;;4.80;3.87;;;15.60;80.20;;;;;;5119721;28;20186;-82
2021/10/27 01:31:12;;;;;;;15.48;4.70;;;15.70;80.20;;;;;;5117492;28;20514;-83
2021/10/27 01:33:39;;;;;;;7.13;3.80;;;15.60;79.90;;;;;;5117811;28;20199;-82
2021/10/27 01:36:05;;;;;;;12.60;4.70;;;15.50;80.10;;;;;;5118666;27;20600;-82
2021/10/27 01:38:32;;;;;;;8.77;4.30;;;15.60;80.10;;;;;;5117581;28;20199;-82
2021/10/27 01:40:58;;;;;;;7.30;4.10;;;15.50;80.00;;;;;;5116863;28;20424;-83
2021/10/27 01:43:24;;;;;;;6.65;4.50;;;15.50;80.20;;;;;;5097073;28;20206;-82
2021/10/27 01:45:50;;;;;;;7.47;4.43;;;15.40;80.30;;;;;;5094597;28;20568;-82
2021/10/27 01:48:16;;;;;;;7.73;4.30;;;15.40;80.40;;;;;;5097246;28;20184;-82
2021/10/27 01:50:43;;;;;;;9.35;4.95;;;15.30;80.60;;;;;;5096827;28;20203;-82
2021/10/27 01:53:09;;;;;;;9.63;5.00;;;15.40;80.60;;;;;;5095045;28;20563;-83
2021/10/27 01:55:36;;;;;;;13.50;4.83;;;15.40;80.60;;;;;;5095466;28;20180;-83
2021/10/27 01:58:02;;;;;;;7.50;3.83;;;15.30;80.60;;;;;;5096825;28;20176;-83
2021/10/27 02:00:28;;;;;;;13.65;5.22;;;15.20;80.80;;;;;;5088115;28;20187;-83
2021/10/27 02:02:54;;;;;;;7.30;4.60;;;15.40;80.90;;;;;;5096538;28;20175;-82
2021/10/27 02:05:19;;;;;;;6.93;4.57;;;15.40;80.80;;;;;;5098388;28;20683;-82
2021/10/27 02:07:45;;;;;;;14.93;4.37;;;15.30;80.90;;;;;;5093097;28;20189;-82
2021/10/27 02:10:12;;;;;;;11.05;5.22;;;15.30;80.90;;;;;;5079286;28;20208;-82
2021/10/27 02:12:40;;;;;;;7.78;4.78;;;15.20;80.80;;;;;;5093586;28;20176;-82
2021/10/27 02:15:07;;;;;;;9.10;4.25;;;15.10;80.80;;;;;;5101173;28;20274;-82
2021/10/27 02:17:33;;;;;;;9.88;4.93;;;15.10;81.10;;;;;;5098084;28;20258;-82
2021/10/27 02:19:59;;;;;;;6.70;4.90;;;15.10;81.20;;;;;;5099551;28;20206;-82
2021/10/27 02:22:25;;;;;;;12.00;5.45;;;15.20;81.20;;;;;;5099441;28;20402;-82
2021/10/27 02:24:51;;;;;;;11.10;5.90;;;15.00;81.10;;;;;;5097540;28;20207;-82
2021/10/27 02:27:16;;;;;;;7.47;4.80;;;14.90;81.50;;;;;;5095533;28;20184;-82
2021/10/27 02:29:43;;;;;;;16.60;5.40;;;14.70;82.00;;;;;;5077231;28;20504;-82
2021/10/27 02:32:10;;;;;;;7.88;4.60;;;14.70;82.50;;;;;;5078353;28;20196;-82
2021/10/27 02:34:35;;;;;;;7.45;4.53;;;14.80;82.40;;;;;;5077496;28;20292;-80
2021/10/27 02:37:02;;;;;;;6.57;4.80;;;14.60;82.30;;;;;;5078201;28;20200;-80
2021/10/27 02:39:28;;;;;;;7.60;4.63;;;14.70;82.40;;;;;;5093096;28;20176;-79
2021/10/27 02:41:54;;;;;;;14.87;5.30;;;14.60;82.50;;;;;;5099690;28;20182;-79
2021/10/27 02:44:20;;;;;;;9.10;5.13;;;14.60;82.80;;;;;;5098042;28;20433;-81
2021/10/27 02:46:46;;;;;;;8.07;5.17;;;14.50;82.80;;;;;;5098512;28;20438;-81
2021/10/27 02:49:13;;;;;;;33.30;6.97;;;14.30;83.10;;;;;;5088487;28;20463;-80
2021/10/27 02:51:38;;;;;;;10.85;6.35;;;14.40;83.20;;;;;;5101229;28;20255;-80
2021/10/27 02:54:04;;;;;;;9.53;5.10;;;14.50;83.20;;;;;;5099859;28;20215;-80
2021/10/27 02:56:30;;;;;;;8.97;4.93;;;14.70;83.20;;;;;;5098404;28;20172;-80
2021/10/27 02:58:56;;;;;;;12.83;5.83;;;14.60;82.70;;;;;;5099239;28;20229;-80
2021/10/27 03:01:21;;;;;;;10.93;4.80;;;14.60;82.70;;;;;;5084096;28;20513;-79
2021/10/27 03:03:48;;;;;;;7.10;4.73;;;14.50;82.80;;;;;;5079022;28;20192;-80
2021/10/27 03:06:14;;;;;;;7.85;5.75;;;14.40;82.80;;;;;;5077920;28;20184;-80
2021/10/27 03:08:40;;;;;;;13.47;6.10;;;14.50;83.00;;;;;;5090323;28;20209;-80
2021/10/27 03:11:06;;;;;;;9.90;5.20;;;14.50;83.00;;;;;;5098263;28;20298;-80
2021/10/27 03:13:32;;;;;;;11.07;5.53;;;14.40;82.90;;;;;;5096404;28;20238;-80
2021/10/27 03:15:58;;;;;;;9.63;6.30;;;14.40;83.10;;;;;;5079678;28;20169;-80
2021/10/27 03:18:23;;;;;;;11.83;6.60;;;14.40;83.10;;;;;;5096472;28;20777;-81
2021/10/27 03:20:49;;;;;;;8.77;5.47;;;14.50;83.10;;;;;;5097905;28;20202;-80
2021/10/27 03:23:15;;;;;;;12.63;6.00;;;14.50;83.00;;;;;;5097471;28;20188;-80
2021/10/27 03:25:40;;;;;;;10.23;6.10;;;14.50;83.00;;;;;;5079194;28;20176;-81
2021/10/27 03:28:06;;;;;;;19.67;6.87;;;14.40;83.00;;;;;;5077802;28;20419;-80
2021/10/27 03:30:32;;;;;;;8.33;6.37;;;14.40;83.20;;;;;;5077433;28;20257;-80
2021/10/27 03:32:58;;;;;;;8.80;5.60;;;14.40;83.30;;;;;;5076903;28;20186;-80
2021/10/27 03:35:24;;;;;;;9.32;5.20;;;14.30;83.50;;;;;;5077679;28;20255;-80
2021/10/27 03:37:50;;;;;;;13.45;6.10;;;14.40;83.60;;;;;;5077706;28;20326;-80
2021/10/27 03:40:16;;;;;;;8.73;5.20;;;14.30;83.70;;;;;;5077884;28;20211;-80
2021/10/27 03:42:42;;;;;;;12.27;7.20;;;14.20;84.00;;;;;;5078865;28;20189;-80
2021/10/27 03:45:08;;;;;;;12.07;6.10;;;14.30;84.00;;;;;;5076734;28;20469;-80
2021/10/27 03:47:34;;;;;;;9.82;5.35;;;14.30;83.80;;;;;;5078995;28;20418;-80
2021/10/27 03:50:00;;;;;;;8.27;5.22;;;14.30;84.00;;;;;;5086804;28;20266;-79
2021/10/27 03:52:26;;;;;;;11.73;7.20;;;14.30;84.00;;;;;;5097413;28;20604;-81
2021/10/27 03:54:52;;;;;;;12.43;6.38;;;14.30;83.80;;;;;;5097175;28;20309;-81
2021/10/27 03:57:18;;;;;;;11.67;5.73;;;14.40;83.80;;;;;;5098831;28;20672;-80
2021/10/27 03:59:43;;;;;;;14.73;6.47;;;14.50;83.50;;;;;;5097465;28;20167;-80
2021/10/27 04:02:09;;;;;;;11.10;6.10;;;14.30;83.60;;;;;;5096687;28;20624;-80
2021/10/27 04:04:35;;;;;;;17.87;6.00;;;14.30;83.90;;;;;;5097100;28;20204;-80
2021/10/27 04:07:01;;;;;;;12.70;6.23;;;14.40;83.90;;;;;;5096736;28;20405;-80
2021/10/27 04:09:27;;;;;;;8.37;5.93;;;14.40;83.60;;;;;;5097301;28;20195;-80
2021/10/27 04:11:52;;;;;;;10.80;5.67;;;14.50;83.80;;;;;;5097024;28;20461;-81
2021/10/27 04:14:18;;;;;;;15.80;7.53;;;14.50;83.60;;;;;;5115246;28;20210;-81
2021/10/27 04:16:44;;;;;;;7.30;5.97;;;14.60;83.60;;;;;;5087400;28;20237;-80
2021/10/27 04:19:10;;;;;;;9.97;5.87;;;14.50;83.30;;;;;;5077277;28;20164;-80
2021/10/27 04:21:35;;;;;;;10.73;6.40;;;14.40;83.40;;;;;;5075737;28;20180;-80
2021/10/27 04:24:01;;;;;;;16.60;6.50;;;14.50;83.60;;;;;;5074882;28;20513;-81
2021/10/27 04:26:27;;;;;;;8.73;6.80;;;14.60;83.60;;;;;;5076736;28;20175;-80
2021/10/27 04:28:53;;;;;;;9.23;5.97;;;14.50;83.60;;;;;;5074726;28;20922;-80
2021/10/27 04:31:20;;;;;;;15.47;8.10;;;14.40;83.50;;;;;;5096047;28;20202;-80
2021/10/27 04:33:45;;;;;;;11.85;6.70;;;14.30;83.90;;;;;;5094125;28;20697;-81
2021/10/27 04:36:11;;;;;;;12.10;6.20;;;14.40;85.00;;;;;;5095480;28;20233;-81
2021/10/27 04:38:37;;;;;;;12.67;7.00;;;14.50;84.10;;;;;;5093546;28;20175;-80
2021/10/27 04:41:03;;;;;;;12.10;6.97;;;14.50;83.80;;;;;;5093377;28;20689;-80
2021/10/27 04:43:28;;;;;;;8.40;6.07;;;14.50;84.00;;;;;;5093966;28;20932;-81
2021/10/27 04:45:54;;;;;;;10.47;5.47;;;14.60;84.20;;;;;;5076141;28;20180;-81
2021/10/27 04:48:20;;;;;;;15.33;7.13;;;14.50;84.00;;;;;;5093545;28;20180;-80
2021/10/27 04:50:46;;;;;;;17.60;7.03;;;14.40;84.10;;;;;;5088097;28;20667;-81
2021/10/27 04:53:17;;;;;;;15.15;6.68;;;14.50;84.30;;;;;;5074078;28;20177;-81
2021/10/27 04:55:46;;;;;;;9.50;5.75;;;14.50;84.40;;;;;;5073947;28;20207;-81
2021/10/27 04:58:13;;;;;;;7.47;6.35;;;14.60;84.30;;;;;;5074391;28;20180;-80
2021/10/27 05:00:39;;;;;;;9.38;6.10;;;14.70;84.10;;;;;;5072791;28;20207;-81
2021/10/27 05:03:05;;;;;;;10.57;6.40;;;14.70;84.00;;;;;;5072897;28;20185;-81
2021/10/27 05:05:35;;;;;;;9.23;5.73;;;14.70;84.00;;;;;;5077397;28;20180;-80
2021/10/27 05:08:02;;;;;;;10.25;5.82;;;14.90;83.90;;;;;;5074788;28;20529;-80
2021/10/27 05:10:27;;;;;;;12.85;7.30;;;14.80;83.60;;;;;;5076279;28;20208;-79
2021/10/27 05:12:53;;;;;;;16.80;6.90;;;14.70;83.60;;;;;;5100773;28;20175;-81
2021/10/27 05:15:19;;;;;;;10.97;6.70;;;14.70;83.80;;;;;;5111869;28;20188;-81
2021/10/27 05:17:45;;;;;;;10.33;6.23;;;14.90;83.50;;;;;;5090566;28;20180;-81
2021/10/27 05:20:11;;;;;;;16.13;6.80;;;14.80;82.80;;;;;;5095988;28;20176;-81
2021/10/27 05:22:37;;;;;;;8.60;5.80;;;14.80;83.00;;;;;;5095039;28;20422;-80
2021/10/27 05:25:03;;;;;;;19.27;6.17;;;14.80;83.10;;;;;;5117639;28;20226;-81
2021/10/27 05:27:30;;;;;;;10.85;6.00;;;14.80;83.00;;;;;;5119227;28;20179;-81
2021/10/27 05:29:57;;;;;;;10.18;5.63;;;14.90;83.00;;;;;;5116949;28;20195;-81
2021/10/27 05:32:24;;;;;;;13.68;6.78;;;14.90;82.80;;;;;;5105778;28;20167;-81
2021/10/27 05:34:50;;;;;;;18.10;6.47;;;14.80;82.60;;;;;;5094788;28;20208;-80
2021/10/27 05:37:16;;;;;;;13.60;6.80;;;14.70;82.90;;;;;;5098148;28;20180;-81
2021/10/27 05:39:41;;;;;;;11.20;6.70;;;14.70;83.00;;;;;;5097723;28;20486;-81
2021/10/27 05:42:11;;;;;;;12.63;7.13;;;14.50;83.30;;;;;;5096892;28;20415;-81
2021/10/27 05:44:37;;;;;;;15.00;7.15;;;14.50;83.60;;;;;;5094772;28;20447;-81
2021/10/27 05:47:03;;;;;;;19.60;7.20;;;14.40;83.70;;;;;;5102003;28;20294;-80
2021/10/27 05:51:59;;;;;;;9.60;7.67;;;14.40;83.70;;;;;;5107679;28;20233;-81
2021/10/27 05:57:09;;;;;;;21.27;8.50;;;14.50;83.70;;;;;;5103915;28;20175;-82
2021/10/27 05:59:35;;;;;;;15.10;9.35;;;14.40;83.90;;;;;;5097798;28;20173;-81
2021/10/27 06:02:01;;;;;;;12.80;8.37;;;14.40;84.00;;;;;;5104404;28;20194;-80
2021/10/27 06:04:27;;;;;;;11.47;8.87;;;14.30;84.10;;;;;;5117372;28;20497;-81
2021/10/27 06:06:53;;;;;;;13.35;8.60;;;14.30;84.30;;;;;;5116185;28;20390;-80
2021/10/27 06:09:19;;;;;;;13.77;8.30;;;14.30;84.40;;;;;;5116946;28;20187;-81
2021/10/27 06:11:45;;;;;;;14.80;8.68;;;14.40;84.50;;;;;;5106920;28;20306;-80
2021/10/27 06:14:11;;;;;;;13.10;8.33;;;14.30;84.60;;;;;;5095387;28;20610;-81
2021/10/27 06:16:38;;;;;;;23.67;9.40;;;14.10;84.80;;;;;;5098720;28;20905;-81
2021/10/27 06:19:05;;;;;;;12.90;8.93;;;14.20;84.90;;;;;;5092808;28;20223;-81
2021/10/27 06:21:32;;;;;;;22.60;9.90;;;14.20;84.90;;;;;;5086968;28;20202;-81
2021/10/27 06:23:59;;;;;;;16.23;9.35;;;14.00;85.10;;;;;;5078675;28;20200;-81
2021/10/27 06:26:25;;;;;;;20.50;9.77;;;14.20;85.40;;;;;;5085253;28;20199;-81
2021/10/27 06:31:30;;;;;;;26.75;12.45;;;14.30;85.60;;;;;;5099097;28;20200;-81
2021/10/27 06:36:32;;;;;;;17.63;9.87;;;14.50;85.20;;;;;;5079861;28;20196;-81
2021/10/27 06:39:24;;;;;;;21.70;10.95;;;14.50;85.10;;;;;;5078471;28;20229;-81
2021/10/27 06:47:38;;;;;;;17.05;9.52;;;14.60;84.80;;;;;;5057751;28;20181;-81
2021/10/27 06:50:04;;;;;;;20.23;11.10;;;14.60;84.40;;;;;;5040038;28;20173;-81
2021/10/27 06:52:30;;;;;;;17.23;10.47;;;14.60;84.40;;;;;;5056121;28;20660;-81
2021/10/27 06:54:56;;;;;;;14.55;10.43;;;14.60;84.40;;;;;;5081362;28;20431;-80
2021/10/27 06:57:26;;;;;;;19.10;11.10;;;14.50;84.50;;;;;;5094589;28;20191;-81
2021/10/27 06:59:55;;;;;;;20.17;11.32;;;14.70;84.40;;;;;;5082712;28;20176;-81
2021/10/27 07:16:07;;;;;;;22.02;13.25;;;14.90;83.00;;;;;;5120987;28;20166;-81
2021/10/27 07:18:33;;;;;;;17.70;13.80;;;14.90;83.00;;;;;;5119308;28;20175;-81
2021/10/27 07:21:00;;;;;;;28.08;13.52;;;14.80;82.80;;;;;;5104116;28;21054;-81
2021/10/27 07:23:27;;;;;;;18.20;13.68;;;14.90;83.00;;;;;;5098372;28;20671;-82
2021/10/27 07:25:58;;;;;;;20.20;13.82;;;14.80;82.50;;;;;;5098889;28;20176;-81
2021/10/27 07:28:30;;;;;;;23.88;14.25;;;14.80;82.90;;;;;;5098141;28;20183;-81
2021/10/27 07:30:57;;;;;;;22.38;13.20;;;14.80;82.60;;;;;;5100069;28;20203;-81
2021/10/27 07:33:23;;;;;;;23.80;15.13;;;14.80;83.00;;;;;;5099612;28;20203;-81
2021/10/27 07:41:00;;;;;;;23.95;14.25;;;15.10;82.40;;;;;;5090484;28;20190;-82
2021/10/27 07:43:28;;;;;;;19.90;12.77;;;14.90;82.10;;;;;;5098473;28;20230;-82
2021/10/27 07:45:54;;;;;;;24.27;15.55;;;15.00;82.20;;;;;;5095021;28;20230;-82
2021/10/27 07:48:21;;;;;;;18.70;13.10;;;15.20;81.90;;;;;;5087520;28;20172;-82
2021/10/27 07:50:47;;;;;;;25.65;12.98;;;15.30;81.60;;;;;;5078967;28;20299;-81
2021/10/27 07:53:14;;;;;;;18.85;13.20;;;15.30;81.20;;;;;;5077782;28;20177;-82
2021/10/27 07:55:44;;;;;;;25.92;12.70;;;15.40;81.00;;;;;;5082945;28;20576;-81
2021/10/27 07:58:10;;;;;;;24.25;12.85;;;15.40;80.90;;;;;;5081035;28;20172;-81
2021/10/27 08:00:36;;;;;;;20.60;13.70;;;15.50;80.40;;;;;;5080286;28;20188;-85
2021/10/27 08:03:04;;;;;;;15.35;12.05;;;15.50;80.00;;;;;;5074240;28;20828;-85
2021/10/27 08:05:37;;;;;;;33.35;16.55;;;15.30;79.90;;;;;;5091883;28;20595;-85
2021/10/27 08:08:03;;;;;;;23.50;12.48;;;15.10;80.60;;;;;;5093810;28;20176;-85
2021/10/27 08:10:29;;;;;;;17.83;11.88;;;15.30;80.70;;;;;;5093488;28;20203;-85
2021/10/27 08:12:56;;;;;;;21.60;12.32;;;15.30;80.40;;;;;;5093861;28;20183;-85
2021/10/27 08:15:23;;;;;;;18.90;12.07;;;15.30;80.40;;;;;;5102164;28;20178;-85
2021/10/27 08:17:50;;;;;;;17.17;11.15;;;15.50;80.30;;;;;;5075951;28;20169;-85
2021/10/27 08:20:18;;;;;;;20.40;13.35;;;15.50;80.10;;;;;;5074910;28;20643;-85
2021/10/27 08:22:47;;;;;;;21.67;13.52;;;15.80;79.60;;;;;;5076966;28;20222;-85
2021/10/27 08:25:29;;;;;;;19.00;12.40;;;15.70;78.60;;;;;;5075893;28;20226;-85
2021/10/27 08:28:02;;;;;;;16.75;11.05;;;15.70;78.70;;;;;;5077292;28;20173;-85
2021/10/27 08:30:41;;;;;;;19.88;12.63;;;15.80;78.20;;;;;;5094758;28;20195;-85
2021/10/27 08:33:08;;;;;;;14.23;11.05;;;15.80;77.80;;;;;;5096146;28;20251;-85
2021/10/27 08:35:35;;;;;;;20.83;11.40;;;15.90;77.90;;;;;;5093573;28;20175;-85
2021/10/27 08:38:02;;;;;;;15.25;11.00;;;15.90;77.40;;;;;;5076322;28;20183;-85
2021/10/27 08:40:29;;;;;;;18.45;12.00;;;15.40;77.50;;;;;;5084253;28;20175;-85
2021/10/27 08:42:57;;;;;;;17.67;10.82;;;15.60;78.00;;;;;;5097786;28;20172;-85
2021/10/27 08:45:24;;;;;;;15.23;10.00;;;15.60;78.00;;;;;;5084555;28;20188;-85
2021/10/27 08:47:52;;;;;;;19.80;11.73;;;15.70;77.90;;;;;;5075868;28;20181;-84
2021/10/27 08:50:20;;;;;;;19.27;11.52;;;15.70;77.30;;;;;;5075475;28;20206;-84
2021/10/27 08:52:47;;;;;;;15.55;11.18;;;15.70;77.10;;;;;;5077791;28;20177;-85
2021/10/27 08:55:14;;;;;;;19.40;12.75;;;15.70;77.10;;;;;;5078683;28;20249;-85
2021/10/27 08:57:44;;;;;;;15.43;11.98;;;15.90;77.40;;;;;;5078259;28;20660;-85
2021/10/27 09:41:45;;;;;;;10.02;7.43;;;15.40;76.40;;;;;;5082117;28;20160;-84
2021/10/27 10:06:17;;;;;;;11.38;7.50;;;16.50;71.80;;;;;;5103423;28;20167;-84
2021/10/27 10:08:47;;;;;;;14.10;7.90;;;16.00;72.70;;;;;;5102634;28;20164;-83
2021/10/27 10:11:20;;;;;;;13.93;8.30;;;16.20;73.10;;;;;;5103040;28;20207;-83
2021/10/27 10:13:47;;;;;;;9.65;7.32;;;16.20;73.20;;;;;;5121092;28;20282;-83
2021/10/27 10:16:14;;;;;;;20.35;8.70;;;16.30;73.10;;;;;;5086062;28;20189;-83
2021/10/27 10:18:42;;;;;;;15.35;8.40;;;16.40;73.00;;;;;;5095751;28;20175;-83
2021/10/27 10:21:10;;;;;;;12.38;7.50;;;16.60;72.70;;;;;;5096069;28;20186;-83
2021/10/27 10:23:36;;;;;;;16.55;8.57;;;16.80;72.00;;;;;;5080467;28;20201;-83
2021/10/27 10:26:09;;;;;;;10.77;8.00;;;16.90;71.90;;;;;;5082847;28;20177;-83
2021/10/27 10:28:42;;;;;;;11.45;7.85;;;16.90;71.90;;;;;;5082073;28;20588;-83
2021/10/27 10:31:09;;;;;;;11.02;7.75;;;16.80;70.90;;;;;;5081658;28;20196;-83
2021/10/27 10:33:44;;;;;;;13.52;8.55;;;16.90;71.20;;;;;;5081776;28;20238;-83
2021/10/27 10:36:33;;;;;;;9.95;7.80;;;17.10;70.70;;;;;;5097656;28;20210;-83
2021/10/27 10:39:12;;;;;;;8.68;6.72;;;17.30;70.60;;;;;;5101637;28;20172;-83
2021/10/27 11:27:36;;;;;;;9.70;6.75;;;17.50;68.10;;;;;;5101556;28;20171;-85
2021/10/27 11:41:28;;;;;;;6.43;5.80;;;17.60;68.50;;;;;;5070547;28;20242;-84
2021/10/27 11:44:13;;;;;;;11.27;6.60;;;17.70;68.60;;;;;;5078153;28;20202;-85
2021/10/27 11:46:55;;;;;;;10.95;6.97;;;17.80;68.30;;;;;;5079024;28;20187;-84
2021/10/27 11:49:28;;;;;;;9.75;6.85;;;17.90;67.70;;;;;;5082454;28;20654;-84
2021/10/27 11:51:58;;;;;;;9.07;6.68;;;17.70;67.50;;;;;;5097787;28;20195;-84
2021/10/27 11:54:27;;;;;;;12.95;7.13;;;17.50;67.80;;;;;;5098503;28;20310;-84
2021/10/27 11:56:54;;;;;;;10.05;6.20;;;17.30;67.80;;;;;;5098778;28;20187;-84
2021/10/27 11:59:36;;;;;;;9.32;6.80;;;17.30;68.20;;;;;;5075935;28;20682;-84
2021/10/27 12:02:05;;;;;;;7.50;6.50;;;17.30;68.40;;;;;;5075628;28;20181;-85
2021/10/27 12:04:35;;;;;;;11.85;6.20;;;17.30;68.50;;;;;;5075324;28;20211;-85
2021/10/27 12:07:31;;;;;;;9.70;5.95;;;17.20;68.70;;;;;;5079228;28;20252;-85
2021/10/27 12:15:40;;;;;;;9.15;6.85;;;17.20;69.20;;;;;;5116809;28;20689;-85
2021/10/27 12:18:10;;;;;;;15.32;7.15;;;17.10;69.60;;;;;;5091352;28;20184;-85
2021/10/27 12:20:38;;;;;;;11.48;6.78;;;17.20;69.50;;;;;;5094520;28;20219;-85
2021/10/27 12:23:06;;;;;;;9.13;6.88;;;17.30;69.30;;;;;;5072139;28;20180;-84
2021/10/27 12:25:32;;;;;;;14.25;7.57;;;17.20;69.10;;;;;;5076721;28;20237;-85
2021/10/27 12:28:04;;;;;;;12.35;6.55;;;17.40;69.20;;;;;;5081168;28;20529;-85
2021/10/27 12:30:37;;;;;;;15.25;7.72;;;17.50;68.80;;;;;;5100771;28;20184;-84
2021/10/27 12:33:05;;;;;;;12.65;6.63;;;17.50;68.60;;;;;;5092398;28;20229;-83
2021/10/27 12:35:30;;;;;;;9.80;6.35;;;17.40;69.00;;;;;;5080527;28;20567;-83
2021/10/27 12:38:11;;;;;;;9.83;6.60;;;17.50;69.10;;;;;;5080758;28;20176;-83
2021/10/27 12:40:45;;;;;;;12.80;6.90;;;17.50;69.10;;;;;;5095392;28;20233;-83
2021/10/27 12:43:13;;;;;;;9.98;6.75;;;17.60;69.00;;;;;;5107216;28;20170;-83
2021/10/27 12:45:44;;;;;;;15.07;7.35;;;17.70;68.70;;;;;;5135676;28;20290;-83
2021/10/27 12:48:19;;;;;;;10.50;7.43;;;17.60;68.50;;;;;;5099344;28;20568;-83
2021/10/27 12:51:11;;;;;;;10.55;7.10;;;17.50;68.60;;;;;;5102669;28;20278;-81
2021/10/27 12:53:43;;;;;;;8.52;6.53;;;17.50;69.00;;;;;;5113378;28;20211;-82
2021/10/27 12:56:13;;;;;;;15.43;9.57;;;17.70;69.10;;;;;;5115746;28;20178;-82
2021/10/27 12:58:43;;;;;;;11.80;6.85;;;17.80;68.80;;;;;;5118867;28;20247;-82
2021/10/27 13:04:35;;;;;;;10.15;6.32;;;17.80;68.10;;;;;;5117725;28;20221;-82
2021/10/27 13:30:48;;;;;;;12.05;6.25;;;17.80;67.80;;;;;;5090448;28;20191;-81
2021/10/27 13:33:09;;;;;;;10.55;7.03;;;17.90;67.90;;;;;;5088435;28;20238;-81
2021/10/27 13:35:35;;;;;;;12.57;6.67;;;18.00;67.70;;;;;;5079379;28;20181;-81
2021/10/27 13:38:02;;;;;;;11.00;5.55;;;18.10;67.50;;;;;;5079519;28;20199;-81
2021/10/27 13:40:29;;;;;;;7.75;5.35;;;18.10;67.10;;;;;;5077593;28;20199;-81
2021/10/27 13:45:44;;;;;;;8.82;3.45;;;18.20;66.10;;;;;;5078413;28;20180;-81
2021/10/27 14:06:53;;;;;;;4.95;3.33;;;17.20;63.60;;;;;;5079572;28;20172;-81
2021/10/27 14:14:54;;;;;;;5.20;3.30;;;17.90;63.10;;;;;;5096858;28;20562;-81
2021/10/27 15:25:22;;;;;;;9.18;4.28;;;17.60;66.80;;;;;;5062167;28;20219;-86
2021/10/27 15:33:40;;;;;;;8.25;4.13;;;16.90;68.50;;;;;;5086050;28;20198;-85
2021/10/27 15:52:12;;;;;;;9.80;4.88;;;16.90;69.60;;;;;;5079305;28;20210;-82
2021/10/27 15:54:38;;;;;;;6.45;3.95;;;16.80;70.10;;;;;;5075098;28;20196;-81
2021/10/27 15:57:04;;;;;;;11.50;3.77;;;16.70;70.30;;;;;;5077106;28;20680;-82
2021/10/27 15:59:30;;;;;;;8.35;3.95;;;16.80;70.40;;;;;;5076009;28;20697;-82
2021/10/27 16:01:56;;;;;;;5.97;3.77;;;16.50;71.10;;;;;;5075341;28;20184;-82
2021/10/27 16:04:22;;;;;;;5.15;4.00;;;16.50;71.60;;;;;;5085928;28;20815;-82
2021/10/27 16:06:52;;;;;;;4.05;3.65;;;16.50;71.80;;;;;;5087508;28;20214;-81
2021/10/27 16:09:19;;;;;;;7.32;3.75;;;16.60;72.20;;;;;;5097185;28;20176;-81
2021/10/27 16:11:46;;;;;;;11.13;4.10;;;16.50;72.00;;;;;;5096342;28;20299;-82
2021/10/27 16:14:13;;;;;;;6.88;4.20;;;16.60;71.90;;;;;;5084474;28;20223;-83
2021/10/27 16:16:40;;;;;;;6.70;4.13;;;16.40;71.70;;;;;;5086010;28;20168;-84
2021/10/27 16:19:05;;;;;;;7.35;4.68;;;16.40;72.40;;;;;;5084201;28;20211;-85
2021/10/27 16:21:31;;;;;;;8.60;4.57;;;16.40;72.30;;;;;;5083959;28;20176;-84
2021/10/27 16:23:59;;;;;;;5.45;4.18;;;16.40;72.60;;;;;;5081723;28;20231;-85
2021/10/27 16:26:26;;;;;;;12.60;7.90;;;16.30;72.90;;;;;;5078932;28;20180;-84
2021/10/27 16:28:52;;;;;;;6.70;3.90;;;16.20;73.10;;;;;;5083388;28;20176;-84
2021/10/27 16:31:18;;;;;;;10.38;5.50;;;16.20;73.30;;;;;;5077237;28;20307;-84
2021/10/27 16:33:45;;;;;;;10.03;5.67;;;16.20;73.40;;;;;;5077846;28;20675;-85
2021/10/27 16:36:12;;;;;;;7.03;4.60;;;16.30;73.70;;;;;;5084502;28;20445;-84
2021/10/27 16:38:41;;;;;;;9.00;5.55;;;16.10;73.80;;;;;;5080062;28;20245;-84
2021/10/27 16:41:09;;;;;;;9.65;5.75;;;16.00;74.20;;;;;;5075738;28;20229;-83
2021/10/27 16:43:35;;;;;;;16.30;5.13;;;16.00;74.20;;;;;;5078057;28;20630;-85
2021/10/27 16:46:01;;;;;;;6.50;4.85;;;16.00;74.50;;;;;;5079872;28;20183;-85
2021/10/27 16:48:27;;;;;;;6.70;5.03;;;15.90;74.70;;;;;;5088200;28;20196;-85
2021/10/27 16:50:54;;;;;;;11.35;5.57;;;16.10;74.70;;;;;;5093338;28;20287;-85
2021/10/27 16:53:21;;;;;;;8.05;5.47;;;16.10;74.70;;;;;;5101669;28;20557;-86
2021/10/27 16:55:47;;;;;;;13.50;6.22;;;16.00;74.40;;;;;;5106662;28;20214;-86
2021/10/27 16:58:14;;;;;;;12.02;5.28;;;16.00;74.50;;;;;;5109404;28;20186;-86
2021/10/27 17:00:40;;;;;;;6.80;4.88;;;16.10;74.60;;;;;;5098406;28;20178;-83
2021/10/27 17:03:06;;;;;;;7.32;5.35;;;16.20;74.30;;;;;;5095404;28;20196;-84
2021/10/27 17:05:32;;;;;;;12.07;5.30;;;16.20;74.20;;;;;;5080224;28;20219;-84
2021/10/27 17:07:58;;;;;;;10.00;6.80;;;16.10;74.40;;;;;;5088852;28;20453;-84
2021/10/27 17:10:25;;;;;;;14.17;6.97;;;16.00;74.30;;;;;;5077974;28;20450;-84
2021/10/27 17:12:51;;;;;;;13.30;7.38;;;16.00;74.80;;;;;;5094647;28;20440;-84
2021/10/27 17:15:17;;;;;;;12.68;7.35;;;16.10;74.80;;;;;;5094782;28;20203;-84
2021/10/27 17:17:44;;;;;;;10.10;6.35;;;16.10;74.70;;;;;;5085630;28;20206;-84
2021/10/27 17:20:14;;;;;;;13.38;7.22;;;16.10;74.50;;;;;;5079516;28;20239;-86
2021/10/27 17:22:42;;;;;;;8.60;6.60;;;16.10;74.50;;;;;;5087961;28;20172;-84
2021/10/27 17:25:11;;;;;;;10.68;7.60;;;15.90;74.70;;;;;;5079081;28;20205;-82
2021/10/27 17:27:39;;;;;;;9.63;7.30;;;15.90;75.10;;;;;;5089882;28;20568;-82
2021/10/27 17:30:10;;;;;;;11.55;8.15;;;15.90;75.10;;;;;;5079568;28;20189;-82
2021/10/27 17:32:36;;;;;;;11.02;7.05;;;15.90;75.20;;;;;;5096044;28;20199;-82
2021/10/27 17:35:07;;;;;;;17.73;7.65;;;15.40;75.60;;;;;;5095870;28;20580;-82
2021/10/27 17:37:33;;;;;;;9.93;7.53;;;15.40;76.60;;;;;;5080973;28;20194;-82
2021/10/27 17:40:04;;;;;;;14.82;7.57;;;15.60;76.70;;;;;;5079738;28;20212;-82
2021/10/27 17:42:30;;;;;;;9.45;7.60;;;15.50;76.50;;;;;;5096744;28;20568;-81
2021/10/27 17:44:56;;;;;;;15.25;7.80;;;15.50;76.50;;;;;;5085012;28;21938;-83